NWS Home NWS Lubbock West Texas Mesonet Latest Conditions as of 0316 PM, Fri Apr 16, 2021

Latest   N   C   S   Daily Sum   3hrΔ   24hrΔ   Soil Data 
Site Map   24hr Precip   72hr Precip   Google Plot


Station Time of Last Temp Dew Pt. RH Wind Direction Wind Speed Wind Gust Max Wind Max Temp Min Temp Max RH Min RH Altimeter 1HR Rain Today's Rain Solar Rad Red FlagRFTI
Abernathy 5ENE  03:10 PM 57 40 54% N1521 32 mph 1° @ 1229 PM 57 43 99 53 29.96" 0 0.03 925   0
Adrian 6WSW  03:10 PM 49 30 49% NE2630 40 mph 12° @ 0248 PM 50 40 100 48 30.04" 0 0.02 996   0
Aiken 3WSW  03:10 PM 54 43 65% N2329 32 mph 354° @ 0213 PM 55 41 100 61 29.99" 0 0.04 650   0
Amarillo 15NNW   03:10 PM 46 34 62% N2225 33 mph 3° @ 0124 PM 50 41 98 56 30.06" 0 0.04 328   0
Amarillo 7SSE  03:10 PM 48 35 61% N1925 33 mph 0° @ 0240 PM 51 35 100 57 30.04" 0 0.05 1032   0
Amarillo 9NNE  03:10 PM 44 34 67% N2530 34 mph 346° @ 0105 PM 49 40 100 62 30.05" 0 0.05 360   0
Amherst 1NE  02:35 PM 57 40 53% N2132 32 mph 3° @ 0235 PM 57 45 100 50 29.97" 0 0.03 875   0
Andrews 2E  03:10 PM 60 47 63% NE1420 25 mph 18° @ 0213 PM 60 50 100 61 29.94" 0 0.02 368   0
Anton 6SSW  03:10 PM 58 40 51% N2128 31 mph 1° @ 0235 PM 59 43 100 51 29.96" 0 0.02 617   0
Aspermont 3NE  03:10 PM 53 47 79% N1315 26 mph 338° @ 1240 PM 53 49 100 79 29.95" 0 0.07 159   0
Big Bend NP - Castolon  01:35 PM 88 31 13% NW710 18 mph 292° @ 0310 AM 88 68 67 13 29.77" 0 0 620   0
Big Bend NP - Persimmon Gap  03:10 PM 85 21 10% W67 22 mph 15° @ 1222 AM 87 63 99 9 29.78" 0 0 562   0
Big Lake 1WNW  03:10 PM 63 51 65% N1620 24 mph 4° @ 0219 PM 69 60 100 65 29.90" 0 0.03 470   0
Bootleg 11WNW  03:10 PM 51 28 41% N2527 37 mph 346° @ 0151 PM 53 41 100 40 30.04" 0 0.01 349   0
Borger 7E  03:10 PM 43 35 74% N2126 34 mph 344° @ 0253 PM 48 40 99 67 30.06" 0 0.05 150   0
Boys Ranch 1WSW  03:10 PM 50 33 52% N2329 35 mph 357° @ 1057 AM 51 42 100 49 30.07" 0 0.03 315   0
Brownfield 2S  03:10 PM 59 44 57% N1822 28 mph 6° @ 0228 PM 59 47 99 55 29.96" 0 0.02 880   0
Canadian 6E  03:10 PM 43 41 92% N2123 28 mph 330° @ 0208 PM 48 41 100 85 30.00" 0 0.09 123   0
Caprock Canyons State Park  03:05 PM 52 42 69% N1318 27 mph 27° @ 0154 PM 52 42 99 68 29.99" 0 0.05 386   0
Childress 2NNE  03:10 PM 56 43 64% NW2027 31 mph 339° @ 0235 PM 56 44 100 63 29.96" 0 0.07 368   0
Clarendon 2WSW  03:10 PM 49 39 69% N2532 35 mph 349° @ 0250 PM 50 41 97 67 29.99" 0 0.04 307   0
Claude 12SW  03:10 PM 49 36 61% NW2833 34 mph 347° @ 0205 PM 50 37 100 60 30.00" 0 0.05 445   0
Clyde 2WNW  03:10 PM 52 50 95% N1823 25 mph 344° @ 0306 PM 56 52 100 95 29.92" 0 0.05 82   0
Colorado City 5NW  03:10 PM 54 48 81% NE1723 23 mph 29° @ 0310 PM 56 51 100 78 29.95" 0 0.07 142   0
Comanche Springs  03:10 PM 55 46 72% N1419 26 mph 342° @ 0306 PM 55 47 99 71 29.95" 0 0.09 278   0
Coyanosa 2N  03:10 PM 66 50 57% NE1011 19 mph 339° @ 0905 AM 68 58 100 50 29.91" 0 0 124   0
Crane 1NNW   03:10 PM 62 48 60% NE1315 22 mph 29° @ 0216 PM 67 57 100 59 29.92" 0 0 333   0
Crowell 1E  03:10 PM 57 48 70% N1921 27 mph 348° @ 0257 PM 58 47 100 70 29.95" 0 0.08 498   0
Dell City  03:10 PM 71 17 12% SE55 27 mph 288° @ 0136 AM 72 47 43 11 29.90" 0 0 395 1 0
Denver City 7WNW  03:10 PM 62 43 50% NE1014 21 mph 21° @ 0105 PM 64 48 100 47 29.94" 0 0.02 439   0
Dimmitt 2NE  03:10 PM 53 35 50% N2633 36 mph 351° @ 0155 PM 54 41 100 49 29.99" 0 0.04 486   0
Doole 3WNW  03:10 PM 62 55 80% NW1920 21 mph 340° @ 0304 PM 65 58 99 79 29.87" 0 0.01 146   0
Dora NM 2SW  03:10 PM 59 34 39% N1623 29 mph 18° @ 1200 PM 59 45 100 39 29.98" 0 0.01 942   0
Dozier 3W  03:10 PM 53 43 70% N1720 31 mph 338° @ 0253 PM 54 43 100 69 29.99" 0 0.06 317   0
Earth 9WSW  03:10 PM 56 36 48% N2430 33 mph 1° @ 0257 PM 57 44 100 47 29.99" 0 0.03 1024   0
Endee NM 2SW  03:10 PM 52 30 43% N1823 36 mph 27° @ 0103 PM 54 41 100 41 30.04" 0 0 1016   0
Estelline 3SSE  03:10 PM 55 43 65% N1822 26 mph 354° @ 0300 PM 55 45 99 63 29.98" 0 0.06 237   0
Floydada 2NNE  03:10 PM 53 41 66% N1928 30 mph 1° @ 0235 PM 54 43 100 64 29.97" 0 0.03 425   0
Fluvanna 3WNW  03:10 PM 51 47 86% NE1721 25 mph 353° @ 0510 AM 55 47 100 84 29.94" 0 0.02 146   0
Fort Chadbourne  03:10 PM 56 51 86% N1518 23 mph 349° @ 0247 PM 59 54 100 85 29.91" 0 0.06 191   0
Fort Lancaster  03:10 PM 74 55 50% N1116 22 mph 142° @ 0215 AM 82 64 100 38 29.83" 0 0.07 378   0
Fort Lewis CO  03:10 PM 46 15 28% NW911 20 mph 169° @ 0206 PM 52 17 98 23 29.98" 0 0 387   0
Fort McKavett  03:10 PM 64 59 81% N1620 23 mph 1° @ 0248 PM 74 60 100 73 29.86" 0 0.05 302   0
Friona 2NE  03:10 PM 54 32 44% N2333 35 mph 7° @ 0130 PM 55 43 100 43 30.01" 0 0.03 1040   0
Fritch 1WNW  03:10 PM 44 35 70% N1525 32 mph 4° @ 0225 PM 46 41 100 68 30.06" 0 0.04 279   0
Gail 2ESE  03:10 PM 59 50 74% NE1521 24 mph 42° @ 0309 PM 59 49 100 72 29.93" 0 0.05 415   0
Goodlett 3W  03:10 PM 55 45 70% N1822 25 mph 344° @ 0250 PM 56 46 100 70 29.95" 0 0.08 233   0
Goodnight  03:10 PM 49 38 65% N2028 37 mph 344° @ 0221 PM 50 38 99 62 30.02" 0 0.06 377   0
Graham 5SSW  03:10 PM 56 46 69% N2228 32 mph 21° @ 0303 PM 60 48 100 65 29.95" 0 0.03 348   0
Guadalupe Mtns Natl Park  03:10 PM 62 14 15% SE59 36 mph 292° @ 1212 AM 67 57 28 10 29.98" 0 0 514 8 0
Guthrie 10WSW  03:10 PM 53 45 74% N1723 32 mph 352° @ 0301 PM 53 47 100 72 29.95" 0 0.03 222   0
Hackberry 2SSE  03:10 PM 56 46 70% N1922 26 mph 346° @ 0244 PM 56 46 100 69 29.96" 0 0.06 435   0
Happy 1E  03:10 PM 51 35 54% N2125 33 mph 5° @ 0224 PM 53 40 100 53 30.01" 0 0.04 523   0
Hart 3N  03:10 PM 54 38 56% N2127 34 mph 349° @ 0240 PM 54 41 100 56 29.99" 0 0.03 863   0
Haskell 1NW  03:10 PM 55 49 83% N1822 27 mph 343° @ 0240 PM 55 50 100 83 29.93" 0 0.06 300   0
Hefner 1SW  03:10 PM 58 50 76% NW1620 26 mph 309° @ 0515 AM 58 49 99 75 29.93" 0 0.08 512   0
Hereford 2NW  03:10 PM 53 33 48% N2432 35 mph 11° @ 0140 PM 53 41 100 48 30.01" 0 0.03 949   0
Hobbs NM 5NW  03:10 PM 64 42 45% NE1213 21 mph 36° @ 0204 PM 64 47 100 45 29.97" 0 0.02 868   0
Jayton 1SSE  03:10 PM 53 46 79% N1319 25 mph 1° @ 0140 PM 53 48 100 79 29.96" 0 0.07 144   0
Junction 1SSW  03:10 PM 70 62 78% N1419 23 mph 353° @ 0239 PM 81 61 100 54 29.82" 0 0.03 202   0
Kent 9E  03:10 PM 69 26 20% N911 19 mph 316° @ 1038 AM 70 53 81 12 29.94" 0 0 636   0
Knox City 3NW  03:10 PM 56 48 74% N1722 30 mph 331° @ 0237 PM 57 49 99 71 29.94" 0 0.08 190   0
Lake Alan Henry 1NW  03:10 PM 52 47 84% NE1216 24 mph 37° @ 0304 PM 54 48 100 81 29.96" 0 0.04 190   0
Lake McClellan 2NW  03:10 PM 47 37 66% N2630 34 mph 354° @ 0308 PM 51 39 99 60 30.01" 0 0.05 361   0
Lamesa 2SE  03:10 PM 61 48 64% N1521 22 mph 28° @ 0235 PM 61 49 99 64 29.94" 0 0.03 526   0
Lesley 2S  03:10 PM 54 42 66% N1820 33 mph 335° @ 0220 PM 55 42 100 62 30.00" 0 0.05 386   0
Levelland 4S  03:10 PM 60 41 50% N1623 31 mph 9° @ 0256 PM 60 45 99 50 29.96" 0 0.01 844   0
Lomax 1SSE  03:10 PM 58 50 74% NE1820 22 mph 17° @ 0741 AM 58 52 100 74 29.94" 0 0.05 212   0
Lubbock 3WNW TTU  03:10 PM 57 42 57% N1623 30 mph 347° @ 0110 PM 57 45 100 57 29.96" 0 0.03 752   0
McAdoo 3NNW  03:10 PM 50 45 82% N1825 28 mph 342° @ 0342 AM 50 43 100 82 29.97" 0 0.03 373   0
McCamey 1SSW  03:10 PM 64 52 64% N1014 22 mph 7° @ 0259 PM 69 60 100 58 29.90" 0 0.01 422   0
McLean 1E  03:10 PM 47 40 79% N2431 33 mph 339° @ 0230 PM 48 40 100 76 29.98" 0 0.05 322   0
Memphis 1NE  03:10 PM 53 41 66% N2327 31 mph 337° @ 0212 PM 55 43 99 62 30.00" 0 0.04 273   0
Menard 2NW   03:10 PM 65 60 83% N1317 21 mph 1° @ 0243 PM 70 59 100 82 29.86" 0 0.05 725   0
Mertzon 3NNE  03:10 PM 61 54 77% N1820 27 mph 358° @ 0905 AM 64 59 100 74 29.90" 0 0.02 207   0
Morton 1ENE  03:10 PM 58 38 48% N1923 30 mph 13° @ 1235 PM 58 45 100 48 29.96" 0 0.02 680   0
Muleshoe 2SSW  03:10 PM 56 36 47% N2025 31 mph 12° @ 0255 PM 56 45 100 47 29.99" 0 0.02 1032   0
New Home  03:10 PM 57 43 60% NE1420 24 mph 16° @ 0214 PM 57 46 100 60 29.96" 0 0.04 682   0
Northfield 1S  03:10 PM 55 42 64% N1723 26 mph 348° @ 0255 PM 56 45 100 64 29.98" 0 0.06 647   0
O'Donnell 1N  03:10 PM 59 46 63% N2026 28 mph 0° @ 0300 PM 61 48 100 61 29.94" 0 0.03 334   0
Odell 4ENE  03:10 PM 56 48 76% N1721 23 mph 350° @ 0253 PM 56 47 100 75 29.95" 0 0.10 340   0
Olton 6S  03:10 PM 56 38 52% N2230 34 mph 5° @ 0305 PM 57 43 100 51 29.96" 0 0.02 901   0
Paducah 10SW  03:10 PM 55 46 72% N1924 31 mph 340° @ 0239 PM 55 45 100 70 29.97" 0 0.06 949   0
Palo Duro 4E (JA Ranch)  03:10 PM 53 40 60% N1822 31 mph 350° @ 0254 PM 55 40 100 59 30.01" 0 0.05 1011   0
Palo Duro Canyon SP Floor  03:10 PM 52 35 52% N1523 31 mph 351° @ 0304 PM 54 41 100 51 30.02" 0 0.05 379   0
Palo Duro Canyon State Park Rim  03:10 PM 49 34 56% N1825 33 mph 352° @ 0238 PM 51 39 100 55 30.03" 0 0.06 922   0
Palo Duro Reservoir 1NW   03:10 PM 41 35 80% N2125 30 mph 344° @ 0257 PM 43 39 98 79 30.06" 0 0.07 316   0
Pampa 2E  03:10 PM 43 37 79% NW2329 34 mph 328° @ 0200 PM 46 38 100 78 30.02" 0 0.05 152   0
Panhandle 1SSW  03:10 PM 45 36 69% N3036 36 mph 338° @ 0310 PM 49 40 100 62 30.03" 0 0.06 396   0
Plains 3N  03:10 PM 60 42 53% N1218 24 mph 42° @ 0300 PM 61 47 100 53 29.95" 0 0.01 974   0
Plainview 1S  03:10 PM 53 40 59% N2126 36 mph 355° @ 0243 PM 56 41 99 54 29.97" 0 0.03 439   0
Post 1NE  03:10 PM 56 46 69% N1724 27 mph 15° @ 0306 PM 59 48 100 67 29.95" 0 0.04 298   0
Ralls 1SE  03:10 PM 54 44 67% N1721 30 mph 347° @ 0120 PM 55 44 100 67 29.97" 0 0.02 804   0
Reese Center  03:10 PM 60 40 49% N1823 33 mph 2° @ 1255 PM 60 44 100 49 29.95" 0 0.02 797   0
Roaring Springs 3N  01:01 PM 47 44 91% N1521 25 mph 7° @ 1153 AM 47 44 100 91 29.96" 0 0.04 154   0
Romero 11SSW  03:10 PM 52 30 43% N2732 42 mph 12° @ 1154 AM 52 41 100 43 30.04" 0 0.02 976   0
Rotan 5W  03:10 PM 51 47 85% N1619 25 mph 348° @ 0235 PM 53 49 100 85 29.96" 0 0.07 264   0
San Angelo 7NW  03:10 PM 62 53 75% N1521 22 mph 338° @ 0230 PM 62 56 100 75 29.89" 0 0.05 484   0
Seagraves 1SW  03:10 PM 62 45 54% NE1422 25 mph 5° @ 0255 PM 64 49 100 52 29.94" 0 0.03 987   0
Segovia 7SSW  03:10 PM 73 65 76% N1825 26 mph 18° @ 0253 PM 78 60 99 56 29.82" 0 0.03 806   0
Seminole 2NNE  03:10 PM 62 48 63% NE1521 22 mph 26° @ 0140 PM 62 49 100 63 29.94" 0 0.05 717   0
Seymour 3NW  03:10 PM 57 49 79% NW1520 24 mph 313° @ 0530 AM 57 50 100 79 29.92" 0 0.10 241   0
Sierra Blanca 1SSE  03:10 PM 68 25 20% W1315 26 mph 291° @ 1248 AM 71 57 20 12 29.95" 0 0 237   0
Silverton 7ESE  03:10 PM 51 41 70% N2229 31 mph 339° @ 1245 PM 53 41 100 67 29.98" 0 0.04 311   0
Slaton 2NE  03:10 PM 55 44 67% N1623 30 mph 349° @ 0208 PM 57 46 99 66 29.96" 0 0.03 1030   0
Smyer  03:10 PM 58 40 51% N1720 34 mph 358° @ 0104 PM 60 45 99 50 29.96" 0 0.02 341   0
Snyder 3E  03:10 PM 51 46 86% N1622 25 mph 13° @ 0255 PM 53 48 100 86 29.94" 0 0.08 216   0
Snyder 3SSW  03:10 PM 52 48 86% N1215 24 mph 22° @ 0305 PM 55 49 100 82 29.96" 0 0.07 225   0
South Plains 3ENE  03:10 PM 53 43 68% N1720 31 mph 4° @ 0257 PM 53 42 100 68 29.98" 0 0.04 625   0
Spur 1W  03:10 PM 52 44 76% N1824 25 mph 355° @ 0420 AM 52 47 100 75 29.96" 0 0.02 197   0
St. Lawrence 5SW  03:10 PM 58 50 75% N2023 26 mph 21° @ 0248 PM 59 56 99 74 29.92" 0 0.02 194   0
Stamford 5ESE  03:10 PM 54 50 85% N1316 26 mph 349° @ 0205 PM 54 51 100 85 29.94" 0 0.06 316   0
Sterling City 4WSW  03:10 PM 58 50 76% N1418 22 mph 348° @ 0210 PM 58 54 100 76 29.92" 0 0.02 202   0
Stinnett 1NNW  03:10 PM 42 35 76% N2731 35 mph 343° @ 0303 PM 45 39 100 71 30.06" 0 0.04 260   0
Stratford 4WNW  03:10 PM 43 32 65% N2530 33 mph 354° @ 0225 PM 44 38 99 62 30.08" 0 0.01 267   0
Sundown 8WSW  03:10 PM 60 41 50% NE1422 28 mph 10° @ 0140 PM 61 46 100 49 29.96" 0 0.02 675   0
Sweetwater 11SW   03:10 PM 51 47 89% N1823 24 mph 3° @ 0300 PM 55 49 99 87 29.94" 0 0.03 134   0
Tahoka 3NNE  03:10 PM 57 44 62% N1618 28 mph 4° @ 0150 PM 59 47 100 60 29.95" 0 0.03 492   0
Tarzan 2WNW  03:10 PM 59 50 72% N1516 23 mph 16° @ 0213 PM 59 51 100 72 29.94" 0 0.04 508   0
Tatum NM 2SW  03:10 PM 64 40 42% NE1117 25 mph 20° @ 1225 PM 64 45 100 42 29.95" 0 0.01 838   0
Throckmorton 1SW  03:10 PM 55 51 86% N812 26 mph 315° @ 0609 AM 55 52 100 86 29.91" 0 0.11 427   0
Truscott 2SE  03:10 PM 57 48 74% N1925 26 mph 344° @ 0252 PM 57 48 98 73 29.94" 0 0.10 382   0
Tulia 2ENE  03:10 PM 52 37 59% N2029 33 mph 353° @ 0300 PM 53 40 99 58 29.99" 0 0.03 411   0
Turkey 2WSW  03:10 PM 53 42 69% NW2228 29 mph 336° @ 0305 PM 53 44 100 69 29.97" 0 0.03 410   0
Umbarger 3NNE  03:10 PM 50 34 54% N2731 38 mph 23° @ 0225 PM 53 40 100 52 30.02" 0 0.04 615   0
Van Horn 3ENE  03:10 PM 70 19 14% NE911 29 mph 301° @ 1201 AM 75 59 17 11 29.93" 0 0 186   0
Vega 4E  03:10 PM 49 32 53% N2533 39 mph 342° @ 1247 PM 50 40 100 50 30.04" 0 0.03 1095   0
Vigo Park  03:10 PM 52 41 66% N1924 30 mph 341° @ 1238 PM 52 M 100 0 30.01" 0 0.06 555   0
Wall 2E  03:10 PM 61 56 84% N1720 22 mph 359° @ 0249 PM 62 58 100 83 29.90" 0 0.03 284   0
Weinert 2NNE  03:10 PM 56 49 75% N1923 25 mph 344° @ 0148 PM 56 49 96 75 29.93" 0 0.10 503   0
Welch  03:10 PM 60 47 63% N1922 26 mph 15° @ 0254 PM 63 49 100 58 29.96" 0 0.03 461   0
Wellington 6SE  03:10 PM 57 43 60% N2228 32 mph 334° @ 0148 PM 57 44 99 60 29.96" 0 0.04 1200   0
White River Lake 6NW  03:10 PM 54 45 70% N1518 31 mph 342° @ 0146 PM 56 46 100 70 29.96" 0 0.04 976   0
Wolfforth 6SSW  03:10 PM 58 43 58% NE2025 30 mph 9° @ 0240 PM 58 46 100 56 29.96" 0 0.03 1053   0

West Texas Mesonet Home   Site Map/Menu  NWS Lubbock Soil Data  Daily Summary Page  24hr Precip  72hr Precip  Google Plot